sensor_id;sensor_type;location;lat;lon;timestamp;P1;durP1;ratioP1;P2;durP2;ratioP2
71959;SDS011;59832;51.146;14.024;2023-07-29T04:02:31;2.45;;;1.60;;
71959;SDS011;59832;51.146;14.024;2023-07-29T04:04:58;1.80;;;1.70;;
71959;SDS011;59832;51.146;14.024;2023-07-29T04:07:24;2.17;;;1.87;;
71959;SDS011;59832;51.146;14.024;2023-07-29T04:09:51;1.70;;;1.60;;
71959;SDS011;59832;51.146;14.024;2023-07-29T04:12:17;1.73;;;1.63;;
71959;SDS011;59832;51.146;14.024;2023-07-29T04:14:47;1.77;;;1.60;;
71959;SDS011;59832;51.146;14.024;2023-07-29T04:17:13;1.77;;;1.67;;
71959;SDS011;59832;51.146;14.024;2023-07-29T04:19:40;1.63;;;1.40;;
71959;SDS011;59832;51.146;14.024;2023-07-29T04:22:06;1.35;;;1.35;;
71959;SDS011;59832;51.146;14.024;2023-07-29T04:24:33;2.10;;;1.52;;
71959;SDS011;59832;51.146;14.024;2023-07-29T04:26:59;1.40;;;1.30;;
71959;SDS011;59832;51.146;14.024;2023-07-29T04:29:26;1.40;;;1.30;;
71959;SDS011;59832;51.146;14.024;2023-07-29T04:31:52;1.27;;;1.27;;
71959;SDS011;59832;51.146;14.024;2023-07-29T04:34:19;1.40;;;1.30;;
71959;SDS011;59832;51.146;14.024;2023-07-29T04:36:46;1.40;;;1.25;;
71959;SDS011;59832;51.146;14.024;2023-07-29T04:41:39;1.30;;;1.20;;
71959;SDS011;59832;51.146;14.024;2023-07-29T04:44:06;1.20;;;1.20;;
71959;SDS011;59832;51.146;14.024;2023-07-29T04:46:33;1.30;;;1.20;;
71959;SDS011;59832;51.146;14.024;2023-07-29T04:51:26;1.00;;;1.00;;
71959;SDS011;59832;51.146;14.024;2023-07-29T04:53:53;1.23;;;1.13;;
71959;SDS011;59832;51.146;14.024;2023-07-29T04:56:19;2.50;;;1.10;;
71959;SDS011;59832;51.146;14.024;2023-07-29T04:58:46;1.10;;;1.10;;
71959;SDS011;59832;51.146;14.024;2023-07-29T05:01:12;1.08;;;1.00;;
71959;SDS011;59832;51.146;14.024;2023-07-29T05:03:39;2.58;;;1.15;;
71959;SDS011;59832;51.146;14.024;2023-07-29T05:06:06;1.15;;;1.00;;
71959;SDS011;59832;51.146;14.024;2023-07-29T05:08:32;0.90;;;0.90;;
71959;SDS011;59832;51.146;14.024;2023-07-29T05:10:59;0.80;;;0.80;;
71959;SDS011;59832;51.146;14.024;2023-07-29T05:13:25;1.08;;;1.08;;
71959;SDS011;59832;51.146;14.024;2023-07-29T05:15:52;0.90;;;0.90;;
71959;SDS011;59832;51.146;14.024;2023-07-29T05:18:19;0.82;;;0.82;;
71959;SDS011;59832;51.146;14.024;2023-07-29T05:20:46;0.90;;;0.90;;
71959;SDS011;59832;51.146;14.024;2023-07-29T05:23:13;0.80;;;0.80;;
71959;SDS011;59832;51.146;14.024;2023-07-29T05:25:39;0.85;;;0.85;;
71959;SDS011;59832;51.146;14.024;2023-07-29T05:28:06;1.00;;;1.00;;
71959;SDS011;59832;51.146;14.024;2023-07-29T05:30:32;0.88;;;0.88;;
71959;SDS011;59832;51.146;14.024;2023-07-29T05:33:03;0.70;;;0.70;;
71959;SDS011;59832;51.146;14.024;2023-07-29T05:35:30;0.90;;;0.90;;
71959;SDS011;59832;51.146;14.024;2023-07-29T05:37:57;2.05;;;1.00;;
71959;SDS011;59832;51.146;14.024;2023-07-29T05:40:23;0.70;;;0.70;;
71959;SDS011;59832;51.146;14.024;2023-07-29T05:42:50;1.10;;;1.00;;
71959;SDS011;59832;51.146;14.024;2023-07-29T05:45:16;0.90;;;0.90;;
71959;SDS011;59832;51.146;14.024;2023-07-29T05:47:43;0.90;;;0.90;;
71959;SDS011;59832;51.146;14.024;2023-07-29T05:50:09;0.85;;;0.80;;
71959;SDS011;59832;51.146;14.024;2023-07-29T05:52:36;1.02;;;0.90;;
71959;SDS011;59832;51.146;14.024;2023-07-29T05:55:03;1.13;;;0.90;;
71959;SDS011;59832;51.146;14.024;2023-07-29T05:57:29;2.28;;;0.90;;
71959;SDS011;59832;51.146;14.024;2023-07-29T05:59:56;2.28;;;0.70;;
71959;SDS011;59832;51.146;14.024;2023-07-29T06:02:22;0.90;;;0.90;;
71959;SDS011;59832;51.146;14.024;2023-07-29T06:04:49;0.60;;;0.60;;
71959;SDS011;59832;51.146;14.024;2023-07-29T06:07:15;0.52;;;0.52;;
71959;SDS011;59832;51.146;14.024;2023-07-29T06:09:42;0.95;;;0.85;;
71959;SDS011;59832;51.146;14.024;2023-07-29T06:12:08;0.88;;;0.70;;
71959;SDS011;59832;51.146;14.024;2023-07-29T06:14:35;0.70;;;0.70;;
71959;SDS011;59832;51.146;14.024;2023-07-29T06:17:01;0.60;;;0.60;;
71959;SDS011;59832;51.146;14.024;2023-07-29T06:19:28;0.70;;;0.70;;
71959;SDS011;59832;51.146;14.024;2023-07-29T06:21:55;0.70;;;0.70;;
71959;SDS011;59832;51.146;14.024;2023-07-29T06:24:22;0.73;;;0.73;;
71959;SDS011;59832;51.146;14.024;2023-07-29T06:26:48;0.65;;;0.65;;
71959;SDS011;59832;51.146;14.024;2023-07-29T06:29:15;1.33;;;0.80;;
71959;SDS011;59832;51.146;14.024;2023-07-29T06:31:41;0.65;;;0.65;;
71959;SDS011;59832;51.146;14.024;2023-07-29T06:34:07;0.80;;;0.80;;
71959;SDS011;59832;51.146;14.024;2023-07-29T06:36:34;0.70;;;0.70;;
71959;SDS011;59832;51.146;14.024;2023-07-29T06:41:27;0.70;;;0.70;;
71959;SDS011;59832;51.146;14.024;2023-07-29T06:43:54;0.70;;;0.70;;
71959;SDS011;59832;51.146;14.024;2023-07-29T06:46:20;0.70;;;0.68;;
71959;SDS011;59832;51.146;14.024;2023-07-29T06:48:46;0.73;;;0.73;;
71959;SDS011;59832;51.146;14.024;2023-07-29T06:51:13;0.80;;;0.80;;
71959;SDS011;59832;51.146;14.024;2023-07-29T06:53:39;0.60;;;0.60;;
71959;SDS011;59832;51.146;14.024;2023-07-29T06:56:06;0.80;;;0.80;;
71959;SDS011;59832;51.146;14.024;2023-07-29T06:58:32;0.75;;;0.75;;
71959;SDS011;59832;51.146;14.024;2023-07-29T07:00:59;0.60;;;0.60;;
71959;SDS011;59832;51.146;14.024;2023-07-29T07:03:25;0.98;;;0.77;;
71959;SDS011;59832;51.146;14.024;2023-07-29T07:05:52;0.70;;;0.68;;
71959;SDS011;59832;51.146;14.024;2023-07-29T07:08:18;1.00;;;0.90;;
71959;SDS011;59832;51.146;14.024;2023-07-29T07:10:46;0.70;;;0.70;;
71959;SDS011;59832;51.146;14.024;2023-07-29T07:13:13;1.08;;;0.88;;
71959;SDS011;59832;51.146;14.024;2023-07-29T07:15:39;1.02;;;0.90;;
71959;SDS011;59832;51.146;14.024;2023-07-29T07:18:06;0.77;;;0.77;;
71959;SDS011;59832;51.146;14.024;2023-07-29T07:20:32;1.20;;;0.88;;
71959;SDS011;59832;51.146;14.024;2023-07-29T07:23:00;0.70;;;0.70;;
71959;SDS011;59832;51.146;14.024;2023-07-29T07:25:27;1.25;;;0.73;;
71959;SDS011;59832;51.146;14.024;2023-07-29T07:27:53;0.80;;;0.80;;
71959;SDS011;59832;51.146;14.024;2023-07-29T07:30:20;0.60;;;0.60;;
71959;SDS011;59832;51.146;14.024;2023-07-29T07:32:46;0.70;;;0.70;;
71959;SDS011;59832;51.146;14.024;2023-07-29T07:35:13;0.80;;;0.80;;
71959;SDS011;59832;51.146;14.024;2023-07-29T07:37:39;2.22;;;0.73;;
71959;SDS011;59832;51.146;14.024;2023-07-29T07:40:06;0.80;;;0.80;;
71959;SDS011;59832;51.146;14.024;2023-07-29T07:42:33;0.77;;;0.77;;
71959;SDS011;59832;51.146;14.024;2023-07-29T07:44:59;1.00;;;0.90;;
71959;SDS011;59832;51.146;14.024;2023-07-29T07:47:25;0.80;;;0.80;;
71959;SDS011;59832;51.146;14.024;2023-07-29T07:49:52;1.75;;;0.70;;
71959;SDS011;59832;51.146;14.024;2023-07-29T07:52:18;0.70;;;0.70;;
71959;SDS011;59832;51.146;14.024;2023-07-29T07:54:45;0.70;;;0.70;;
71959;SDS011;59832;51.146;14.024;2023-07-29T07:57:11;0.90;;;0.82;;
71959;SDS011;59832;51.146;14.024;2023-07-29T07:59:38;0.73;;;0.73;;
71959;SDS011;59832;51.146;14.024;2023-07-29T08:02:04;0.88;;;0.85;;
71959;SDS011;59832;51.146;14.024;2023-07-29T08:04:31;0.57;;;0.57;;
71959;SDS011;59832;51.146;14.024;2023-07-29T08:06:57;0.80;;;0.80;;
71959;SDS011;59832;51.146;14.024;2023-07-29T08:09:24;0.57;;;0.57;;
71959;SDS011;59832;51.146;14.024;2023-07-29T08:11:50;0.70;;;0.70;;
71959;SDS011;59832;51.146;14.024;2023-07-29T08:14:17;0.80;;;0.70;;
71959;SDS011;59832;51.146;14.024;2023-07-29T08:16:43;0.80;;;0.80;;
71959;SDS011;59832;51.146;14.024;2023-07-29T08:19:10;1.08;;;0.70;;
71959;SDS011;59832;51.146;14.024;2023-07-29T08:21:36;0.75;;;0.70;;
71959;SDS011;59832;51.146;14.024;2023-07-29T08:24:03;1.67;;;0.70;;
71959;SDS011;59832;51.146;14.024;2023-07-29T08:26:29;0.60;;;0.60;;
71959;SDS011;59832;51.146;14.024;2023-07-29T08:28:56;1.40;;;0.60;;
71959;SDS011;59832;51.146;14.024;2023-07-29T08:31:22;0.77;;;0.77;;
71959;SDS011;59832;51.146;14.024;2023-07-29T08:33:49;0.60;;;0.60;;
71959;SDS011;59832;51.146;14.024;2023-07-29T08:36:15;0.82;;;0.82;;
71959;SDS011;59832;51.146;14.024;2023-07-29T08:38:42;0.57;;;0.57;;
71959;SDS011;59832;51.146;14.024;2023-07-29T08:41:13;1.52;;;0.73;;
71959;SDS011;59832;51.146;14.024;2023-07-29T08:43:49;0.70;;;0.70;;
71959;SDS011;59832;51.146;14.024;2023-07-29T08:46:28;0.60;;;0.60;;
71959;SDS011;59832;51.146;14.024;2023-07-29T08:48:54;0.70;;;0.65;;
71959;SDS011;59832;51.146;14.024;2023-07-29T08:51:21;0.77;;;0.77;;
71959;SDS011;59832;51.146;14.024;2023-07-29T08:53:49;0.60;;;0.60;;
71959;SDS011;59832;51.146;14.024;2023-07-29T08:56:15;14.95;;;2.65;;
71959;SDS011;59832;51.146;14.024;2023-07-29T08:58:42;2.03;;;0.77;;
71959;SDS011;59832;51.146;14.024;2023-07-29T09:01:09;0.68;;;0.68;;
71959;SDS011;59832;51.146;14.024;2023-07-29T09:03:36;0.70;;;0.70;;
71959;SDS011;59832;51.146;14.024;2023-07-29T09:08:30;0.60;;;0.60;;
71959;SDS011;59832;51.146;14.024;2023-07-29T09:10:56;0.75;;;0.60;;
71959;SDS011;59832;51.146;14.024;2023-07-29T09:13:23;0.73;;;0.73;;
71959;SDS011;59832;51.146;14.024;2023-07-29T09:15:49;0.65;;;0.65;;
71959;SDS011;59832;51.146;14.024;2023-07-29T09:18:21;1.55;;;0.80;;
71959;SDS011;59832;51.146;14.024;2023-07-29T09:23:15;0.70;;;0.70;;
71959;SDS011;59832;51.146;14.024;2023-07-29T09:28:12;0.90;;;0.50;;
71959;SDS011;59832;51.146;14.024;2023-07-29T09:30:41;0.50;;;0.50;;
71959;SDS011;59832;51.146;14.024;2023-07-29T09:33:09;0.50;;;0.50;;
71959;SDS011;59832;51.146;14.024;2023-07-29T09:35:36;0.57;;;0.57;;
71959;SDS011;59832;51.146;14.024;2023-07-29T09:38:04;2.05;;;0.55;;
71959;SDS011;59832;51.146;14.024;2023-07-29T09:40:38;0.45;;;0.45;;
71959;SDS011;59832;51.146;14.024;2023-07-29T09:43:06;0.30;;;0.30;;
71959;SDS011;59832;51.146;14.024;2023-07-29T09:45:35;0.68;;;0.45;;
71959;SDS011;59832;51.146;14.024;2023-07-29T09:48:03;0.30;;;0.30;;
71959;SDS011;59832;51.146;14.024;2023-07-29T09:50:36;0.50;;;0.50;;
71959;SDS011;59832;51.146;14.024;2023-07-29T09:53:03;0.50;;;0.50;;
71959;SDS011;59832;51.146;14.024;2023-07-29T09:55:32;0.88;;;0.57;;
71959;SDS011;59832;51.146;14.024;2023-07-29T09:58:00;1.42;;;0.50;;
71959;SDS011;59832;51.146;14.024;2023-07-29T10:00:29;1.10;;;0.55;;
71959;SDS011;59832;51.146;14.024;2023-07-29T10:02:57;0.52;;;0.50;;
71959;SDS011;59832;51.146;14.024;2023-07-29T10:05:27;0.60;;;0.50;;
71959;SDS011;59832;51.146;14.024;2023-07-29T10:07:55;0.60;;;0.60;;
71959;SDS011;59832;51.146;14.024;2023-07-29T10:10:22;0.70;;;0.70;;
71959;SDS011;59832;51.146;14.024;2023-07-29T10:12:49;0.80;;;0.80;;
71959;SDS011;59832;51.146;14.024;2023-07-29T10:15:16;0.50;;;0.50;;
71959;SDS011;59832;51.146;14.024;2023-07-29T10:17:43;1.17;;;0.55;;
71959;SDS011;59832;51.146;14.024;2023-07-29T10:20:15;0.60;;;0.60;;
71959;SDS011;59832;51.146;14.024;2023-07-29T10:22:42;0.88;;;0.88;;
71959;SDS011;59832;51.146;14.024;2023-07-29T10:27:56;0.75;;;0.75;;
71959;SDS011;59832;51.146;14.024;2023-07-29T10:30:26;1.02;;;0.70;;
71959;SDS011;59832;51.146;14.024;2023-07-29T10:32:54;0.70;;;0.70;;
71959;SDS011;59832;51.146;14.024;2023-07-29T10:35:24;1.67;;;0.70;;
71959;SDS011;59832;51.146;14.024;2023-07-29T10:37:54;0.70;;;0.70;;
71959;SDS011;59832;51.146;14.024;2023-07-29T10:40:21;1.45;;;0.80;;
71959;SDS011;59832;51.146;14.024;2023-07-29T10:43:00;0.95;;;0.70;;
71959;SDS011;59832;51.146;14.024;2023-07-29T10:45:38;0.70;;;0.70;;
71959;SDS011;59832;51.146;14.024;2023-07-29T10:48:12;0.70;;;0.70;;
71959;SDS011;59832;51.146;14.024;2023-07-29T10:53:57;3.50;;;1.10;;
71959;SDS011;59832;51.146;14.024;2023-07-29T10:56:34;0.95;;;0.80;;
71959;SDS011;59832;51.146;14.024;2023-07-29T11:01:39;0.85;;;0.80;;
71959;SDS011;59832;51.146;14.024;2023-07-29T11:17:35;1.48;;;0.70;;
71959;SDS011;59832;51.146;14.024;2023-07-29T11:20:02;0.60;;;0.60;;
71959;SDS011;59832;51.146;14.024;2023-07-29T11:22:30;2.50;;;0.68;;
71959;SDS011;59832;51.146;14.024;2023-07-29T11:24:59;0.60;;;0.60;;
71959;SDS011;59832;51.146;14.024;2023-07-29T11:27:26;0.60;;;0.60;;
71959;SDS011;59832;51.146;14.024;2023-07-29T11:29:56;0.50;;;0.50;;
71959;SDS011;59832;51.146;14.024;2023-07-29T11:32:23;0.80;;;0.80;;
71959;SDS011;59832;51.146;14.024;2023-07-29T11:34:51;0.70;;;0.70;;
71959;SDS011;59832;51.146;14.024;2023-07-29T11:37:17;0.82;;;0.65;;
71959;SDS011;59832;51.146;14.024;2023-07-29T11:39:44;0.75;;;0.70;;
71959;SDS011;59832;51.146;14.024;2023-07-29T11:42:11;1.63;;;0.80;;
71959;SDS011;59832;51.146;14.024;2023-07-29T11:44:38;0.70;;;0.70;;
71959;SDS011;59832;51.146;14.024;2023-07-29T11:47:08;0.80;;;0.80;;
71959;SDS011;59832;51.146;14.024;2023-07-29T11:49:35;0.88;;;0.88;;
71959;SDS011;59832;51.146;14.024;2023-07-29T11:52:02;2.88;;;0.85;;
71959;SDS011;59832;51.146;14.024;2023-07-29T11:54:29;1.13;;;0.93;;
71959;SDS011;59832;51.146;14.024;2023-07-29T11:56:56;1.00;;;0.90;;
71959;SDS011;59832;51.146;14.024;2023-07-29T11:59:23;0.80;;;0.80;;
71959;SDS011;59832;51.146;14.024;2023-07-29T12:01:49;2.28;;;0.93;;
71959;SDS011;59832;51.146;14.024;2023-07-29T12:04:16;3.05;;;1.00;;
71959;SDS011;59832;51.146;14.024;2023-07-29T12:06:43;0.93;;;0.80;;
71959;SDS011;59832;51.146;14.024;2023-07-29T12:09:09;0.88;;;0.80;;
71959;SDS011;59832;51.146;14.024;2023-07-29T12:11:36;0.93;;;0.88;;
71959;SDS011;59832;51.146;14.024;2023-07-29T12:14:03;0.80;;;0.80;;
71959;SDS011;59832;51.146;14.024;2023-07-29T12:16:29;0.70;;;0.60;;
71959;SDS011;59832;51.146;14.024;2023-07-29T12:19:01;1.88;;;0.68;;
71959;SDS011;59832;51.146;14.024;2023-07-29T12:21:28;0.70;;;0.70;;
71959;SDS011;59832;51.146;14.024;2023-07-29T12:23:55;0.60;;;0.60;;
71959;SDS011;59832;51.146;14.024;2023-07-29T12:26:29;1.50;;;0.70;;
71959;SDS011;59832;51.146;14.024;2023-07-29T12:28:55;0.80;;;0.80;;
71959;SDS011;59832;51.146;14.024;2023-07-29T12:31:31;0.63;;;0.63;;
71959;SDS011;59832;51.146;14.024;2023-07-29T12:34:01;1.13;;;0.70;;
71959;SDS011;59832;51.146;14.024;2023-07-29T12:36:41;1.00;;;0.90;;
71959;SDS011;59832;51.146;14.024;2023-07-29T12:39:18;0.90;;;0.70;;
71959;SDS011;59832;51.146;14.024;2023-07-29T12:41:50;0.70;;;0.70;;
71959;SDS011;59832;51.146;14.024;2023-07-29T12:44:17;0.80;;;0.80;;
71959;SDS011;59832;51.146;14.024;2023-07-29T12:46:44;1.45;;;0.75;;
71959;SDS011;59832;51.146;14.024;2023-07-29T12:49:11;0.77;;;0.77;;
71959;SDS011;59832;51.146;14.024;2023-07-29T12:51:37;0.80;;;0.68;;
71959;SDS011;59832;51.146;14.024;2023-07-29T12:54:04;0.70;;;0.70;;
71959;SDS011;59832;51.146;14.024;2023-07-29T12:56:31;1.08;;;0.77;;
71959;SDS011;59832;51.146;14.024;2023-07-29T12:58:59;1.23;;;0.70;;
71959;SDS011;59832;51.146;14.024;2023-07-29T13:01:27;0.63;;;0.60;;
71959;SDS011;59832;51.146;14.024;2023-07-29T13:03:54;1.20;;;0.90;;
71959;SDS011;59832;51.146;14.024;2023-07-29T13:06:21;0.57;;;0.57;;
71959;SDS011;59832;51.146;14.024;2023-07-29T13:11:15;3.60;;;0.60;;
71959;SDS011;59832;51.146;14.024;2023-07-29T13:13:42;1.77;;;0.60;;
71959;SDS011;59832;51.146;14.024;2023-07-29T13:16:08;1.30;;;0.63;;
71959;SDS011;59832;51.146;14.024;2023-07-29T13:18:35;1.13;;;0.70;;
71959;SDS011;59832;51.146;14.024;2023-07-29T13:21:01;0.98;;;0.63;;
71959;SDS011;59832;51.146;14.024;2023-07-29T13:23:28;0.60;;;0.60;;
71959;SDS011;59832;51.146;14.024;2023-07-29T13:25:56;0.73;;;0.73;;
71959;SDS011;59832;51.146;14.024;2023-07-29T13:28:23;0.50;;;0.50;;
71959;SDS011;59832;51.146;14.024;2023-07-29T13:30:50;0.60;;;0.60;;
71959;SDS011;59832;51.146;14.024;2023-07-29T13:33:16;0.70;;;0.70;;
71959;SDS011;59832;51.146;14.024;2023-07-29T13:35:43;0.80;;;0.80;;
71959;SDS011;59832;51.146;14.024;2023-07-29T13:38:09;0.77;;;0.73;;
71959;SDS011;59832;51.146;14.024;2023-07-29T13:40:37;1.30;;;0.73;;
71959;SDS011;59832;51.146;14.024;2023-07-29T13:43:03;0.57;;;0.57;;
71959;SDS011;59832;51.146;14.024;2023-07-29T13:45:30;1.00;;;1.00;;
71959;SDS011;59832;51.146;14.024;2023-07-29T13:47:57;1.42;;;0.73;;
71959;SDS011;59832;51.146;14.024;2023-07-29T13:50:24;0.75;;;0.75;;
71959;SDS011;59832;51.146;14.024;2023-07-29T13:52:50;0.80;;;0.80;;
71959;SDS011;59832;51.146;14.024;2023-07-29T13:55:17;0.80;;;0.70;;
71959;SDS011;59832;51.146;14.024;2023-07-29T13:57:43;0.70;;;0.70;;
71959;SDS011;59832;51.146;14.024;2023-07-29T14:00:10;1.13;;;0.90;;
71959;SDS011;59832;51.146;14.024;2023-07-29T14:02:36;0.60;;;0.60;;
71959;SDS011;59832;51.146;14.024;2023-07-29T14:05:03;0.70;;;0.70;;
71959;SDS011;59832;51.146;14.024;2023-07-29T14:09:56;0.70;;;0.70;;
71959;SDS011;59832;51.146;14.024;2023-07-29T14:12:27;0.60;;;0.60;;
71959;SDS011;59832;51.146;14.024;2023-07-29T14:14:53;1.25;;;0.80;;
71959;SDS011;59832;51.146;14.024;2023-07-29T14:17:19;0.85;;;0.55;;
71959;SDS011;59832;51.146;14.024;2023-07-29T14:19:46;0.80;;;0.80;;
71959;SDS011;59832;51.146;14.024;2023-07-29T14:22:12;0.80;;;0.80;;
71959;SDS011;59832;51.146;14.024;2023-07-29T14:24:39;0.80;;;0.80;;
71959;SDS011;59832;51.146;14.024;2023-07-29T14:27:05;0.77;;;0.77;;
71959;SDS011;59832;51.146;14.024;2023-07-29T14:29:32;0.95;;;0.90;;
71959;SDS011;59832;51.146;14.024;2023-07-29T14:31:58;0.70;;;0.70;;
71959;SDS011;59832;51.146;14.024;2023-07-29T14:34:25;0.75;;;0.75;;
71959;SDS011;59832;51.146;14.024;2023-07-29T14:36:51;0.70;;;0.70;;
71959;SDS011;59832;51.146;14.024;2023-07-29T14:39:17;2.47;;;0.70;;
71959;SDS011;59832;51.146;14.024;2023-07-29T14:41:44;0.80;;;0.80;;
71959;SDS011;59832;51.146;14.024;2023-07-29T14:44:10;0.80;;;0.80;;
71959;SDS011;59832;51.146;14.024;2023-07-29T14:46:37;1.05;;;0.70;;
71959;SDS011;59832;51.146;14.024;2023-07-29T14:49:04;0.80;;;0.80;;
71959;SDS011;59832;51.146;14.024;2023-07-29T14:51:30;1.75;;;0.68;;
71959;SDS011;59832;51.146;14.024;2023-07-29T14:53:57;0.90;;;0.70;;
71959;SDS011;59832;51.146;14.024;2023-07-29T14:56:23;0.57;;;0.57;;
71959;SDS011;59832;51.146;14.024;2023-07-29T14:58:50;1.83;;;0.70;;
71959;SDS011;59832;51.146;14.024;2023-07-29T15:01:16;0.90;;;0.75;;
71959;SDS011;59832;51.146;14.024;2023-07-29T15:03:43;0.77;;;0.77;;
71959;SDS011;59832;51.146;14.024;2023-07-29T15:06:12;1.88;;;0.60;;
71959;SDS011;59832;51.146;14.024;2023-07-29T15:08:38;0.60;;;0.60;;
71959;SDS011;59832;51.146;14.024;2023-07-29T15:11:05;0.95;;;0.80;;
71959;SDS011;59832;51.146;14.024;2023-07-29T15:13:32;0.75;;;0.75;;
71959;SDS011;59832;51.146;14.024;2023-07-29T15:18:25;0.80;;;0.70;;
71959;SDS011;59832;51.146;14.024;2023-07-29T15:20:56;0.70;;;0.60;;
71959;SDS011;59832;51.146;14.024;2023-07-29T15:23:23;0.50;;;0.50;;
71959;SDS011;59832;51.146;14.024;2023-07-29T15:25:49;0.80;;;0.80;;
71959;SDS011;59832;51.146;14.024;2023-07-29T15:28:16;0.68;;;0.68;;
71959;SDS011;59832;51.146;14.024;2023-07-29T15:30:43;0.65;;;0.65;;
71959;SDS011;59832;51.146;14.024;2023-07-29T15:33:09;1.02;;;0.90;;
71959;SDS011;59832;51.146;14.024;2023-07-29T15:35:36;0.63;;;0.63;;
71959;SDS011;59832;51.146;14.024;2023-07-29T15:38:05;0.75;;;0.60;;
71959;SDS011;59832;51.146;14.024;2023-07-29T15:40:32;0.60;;;0.60;;
71959;SDS011;59832;51.146;14.024;2023-07-29T15:42:58;0.60;;;0.60;;
71959;SDS011;59832;51.146;14.024;2023-07-29T15:45:25;0.80;;;0.80;;
71959;SDS011;59832;51.146;14.024;2023-07-29T15:47:51;0.70;;;0.70;;
71959;SDS011;59832;51.146;14.024;2023-07-29T15:50:18;0.70;;;0.52;;
71959;SDS011;59832;51.146;14.024;2023-07-29T15:52:44;0.70;;;0.70;;
71959;SDS011;59832;51.146;14.024;2023-07-29T15:55:11;1.08;;;0.80;;
71959;SDS011;59832;51.146;14.024;2023-07-29T15:57:37;0.77;;;0.77;;
71959;SDS011;59832;51.146;14.024;2023-07-29T16:00:04;0.70;;;0.70;;
71959;SDS011;59832;51.146;14.024;2023-07-29T16:02:31;3.40;;;0.80;;
71959;SDS011;59832;51.146;14.024;2023-07-29T16:04:58;0.70;;;0.70;;
71959;SDS011;59832;51.146;14.024;2023-07-29T16:07:24;2.40;;;0.70;;
71959;SDS011;59832;51.146;14.024;2023-07-29T16:09:51;3.97;;;0.65;;
71959;SDS011;59832;51.146;14.024;2023-07-29T16:12:17;0.93;;;0.90;;
71959;SDS011;59832;51.146;14.024;2023-07-29T16:14:43;0.70;;;0.70;;
71959;SDS011;59832;51.146;14.024;2023-07-29T16:17:10;0.75;;;0.75;;
71959;SDS011;59832;51.146;14.024;2023-07-29T16:19:51;0.80;;;0.80;;
71959;SDS011;59832;51.146;14.024;2023-07-29T16:22:25;0.80;;;0.75;;
71959;SDS011;59832;51.146;14.024;2023-07-29T16:24:51;0.85;;;0.85;;
71959;SDS011;59832;51.146;14.024;2023-07-29T16:27:18;0.93;;;0.80;;
71959;SDS011;59832;51.146;14.024;2023-07-29T16:32:12;1.00;;;0.80;;
71959;SDS011;59832;51.146;14.024;2023-07-29T16:34:38;1.20;;;0.80;;
71959;SDS011;59832;51.146;14.024;2023-07-29T16:37:05;0.90;;;0.90;;
71959;SDS011;59832;51.146;14.024;2023-07-29T16:39:32;2.35;;;0.90;;
71959;SDS011;59832;51.146;14.024;2023-07-29T16:44:31;2.05;;;0.80;;
71959;SDS011;59832;51.146;14.024;2023-07-29T16:46:58;5.38;;;1.00;;
71959;SDS011;59832;51.146;14.024;2023-07-29T16:49:24;2.53;;;0.90;;
71959;SDS011;59832;51.146;14.024;2023-07-29T16:51:51;0.88;;;0.70;;
71959;SDS011;59832;51.146;14.024;2023-07-29T16:54:18;3.55;;;1.02;;
71959;SDS011;59832;51.146;14.024;2023-07-29T16:56:48;1.10;;;1.00;;
71959;SDS011;59832;51.146;14.024;2023-07-29T16:59:15;2.22;;;0.98;;
71959;SDS011;59832;51.146;14.024;2023-07-29T17:01:42;7.80;;;1.40;;
71959;SDS011;59832;51.146;14.024;2023-07-29T17:04:09;2.90;;;1.10;;
71959;SDS011;59832;51.146;14.024;2023-07-29T17:06:35;3.10;;;1.25;;
71959;SDS011;59832;51.146;14.024;2023-07-29T17:09:02;2.33;;;1.13;;
71959;SDS011;59832;51.146;14.024;2023-07-29T17:11:29;2.70;;;1.50;;
71959;SDS011;59832;51.146;14.024;2023-07-29T17:13:55;3.03;;;1.37;;
71959;SDS011;59832;51.146;14.024;2023-07-29T17:16:22;2.63;;;1.60;;
71959;SDS011;59832;51.146;14.024;2023-07-29T17:18:48;3.25;;;1.40;;
71959;SDS011;59832;51.146;14.024;2023-07-29T17:21:15;3.73;;;1.47;;
71959;SDS011;59832;51.146;14.024;2023-07-29T17:23:41;2.97;;;1.27;;
71959;SDS011;59832;51.146;14.024;2023-07-29T17:26:07;3.03;;;1.50;;
71959;SDS011;59832;51.146;14.024;2023-07-29T17:28:34;2.45;;;1.55;;
71959;SDS011;59832;51.146;14.024;2023-07-29T17:31:01;3.20;;;1.77;;
71959;SDS011;59832;51.146;14.024;2023-07-29T17:33:30;3.70;;;1.50;;
71959;SDS011;59832;51.146;14.024;2023-07-29T17:35:57;3.43;;;1.23;;
71959;SDS011;59832;51.146;14.024;2023-07-29T17:38:23;3.23;;;1.50;;
71959;SDS011;59832;51.146;14.024;2023-07-29T17:40:50;2.10;;;1.40;;
71959;SDS011;59832;51.146;14.024;2023-07-29T17:43:17;2.33;;;1.20;;
71959;SDS011;59832;51.146;14.024;2023-07-29T17:45:43;3.05;;;1.55;;
71959;SDS011;59832;51.146;14.024;2023-07-29T17:48:10;1.60;;;1.20;;
71959;SDS011;59832;51.146;14.024;2023-07-29T17:50:36;2.27;;;1.27;;
71959;SDS011;59832;51.146;14.024;2023-07-29T17:53:02;1.90;;;1.20;;
71959;SDS011;59832;51.146;14.024;2023-07-29T17:55:29;1.95;;;1.40;;
71959;SDS011;59832;51.146;14.024;2023-07-29T17:57:56;2.60;;;1.20;;
71959;SDS011;59832;51.146;14.024;2023-07-29T18:00:24;1.80;;;1.27;;
71959;SDS011;59832;51.146;14.024;2023-07-29T18:02:50;1.37;;;1.20;;
71959;SDS011;59832;51.146;14.024;2023-07-29T18:05:18;3.25;;;1.33;;
71959;SDS011;59832;51.146;14.024;2023-07-29T18:07:45;2.03;;;1.30;;
71959;SDS011;59832;51.146;14.024;2023-07-29T18:10:11;1.57;;;1.30;;
71959;SDS011;59832;51.146;14.024;2023-07-29T18:12:38;2.38;;;1.50;;
71959;SDS011;59832;51.146;14.024;2023-07-29T18:15:10;2.42;;;1.50;;
71959;SDS011;59832;51.146;14.024;2023-07-29T18:17:36;1.80;;;1.70;;
71959;SDS011;59832;51.146;14.024;2023-07-29T18:20:04;3.72;;;1.60;;
71959;SDS011;59832;51.146;14.024;2023-07-29T18:22:32;2.40;;;1.60;;
71959;SDS011;59832;51.146;14.024;2023-07-29T18:24:58;2.38;;;1.73;;
71959;SDS011;59832;51.146;14.024;2023-07-29T18:27:25;2.70;;;1.80;;
71959;SDS011;59832;51.146;14.024;2023-07-29T18:29:51;3.08;;;2.35;;
71959;SDS011;59832;51.146;14.024;2023-07-29T18:32:18;5.97;;;2.17;;
71959;SDS011;59832;51.146;14.024;2023-07-29T18:34:44;3.78;;;1.70;;
71959;SDS011;59832;51.146;14.024;2023-07-29T18:37:11;2.92;;;1.65;;
71959;SDS011;59832;51.146;14.024;2023-07-29T18:39:37;3.37;;;1.83;;
71959;SDS011;59832;51.146;14.024;2023-07-29T18:42:04;3.63;;;2.00;;
71959;SDS011;59832;51.146;14.024;2023-07-29T18:44:30;6.65;;;4.93;;
71959;SDS011;59832;51.146;14.024;2023-07-29T18:46:57;4.40;;;4.10;;
71959;SDS011;59832;51.146;14.024;2023-07-29T18:49:23;6.93;;;3.20;;
71959;SDS011;59832;51.146;14.024;2023-07-29T18:51:50;4.30;;;3.90;;
71959;SDS011;59832;51.146;14.024;2023-07-29T18:54:16;3.10;;;2.20;;
71959;SDS011;59832;51.146;14.024;2023-07-29T18:56:43;2.50;;;2.10;;
71959;SDS011;59832;51.146;14.024;2023-07-29T18:59:09;4.00;;;2.20;;
71959;SDS011;59832;51.146;14.024;2023-07-29T19:01:36;3.42;;;3.13;;
71959;SDS011;59832;51.146;14.024;2023-07-29T19:04:02;4.45;;;2.58;;
71959;SDS011;59832;51.146;14.024;2023-07-29T19:06:30;2.78;;;2.58;;
71959;SDS011;59832;51.146;14.024;2023-07-29T19:08:57;2.83;;;2.30;;
71959;SDS011;59832;51.146;14.024;2023-07-29T19:11:23;2.70;;;2.37;;
71959;SDS011;59832;51.146;14.024;2023-07-29T19:13:50;3.03;;;2.23;;
71959;SDS011;59832;51.146;14.024;2023-07-29T19:16:16;2.22;;;2.03;;
71959;SDS011;59832;51.146;14.024;2023-07-29T19:18:47;3.83;;;1.92;;
71959;SDS011;59832;51.146;14.024;2023-07-29T19:21:14;3.63;;;2.10;;
71959;SDS011;59832;51.146;14.024;2023-07-29T19:23:42;2.85;;;1.83;;